Andrelandia, Brazil
Current Conditions -  °F | °C
As of 1:00 PM on Wednesday 26 Nov 2014 (Local Time) from SBBQ Reporting Station
Broken Clouds Broken Clouds  
Wind Chill: 75°   Ceiling: 1900
Heat Index: 75°   Visibility: 6mi
Dew Point: 66°   Wind: 13mph
Humidity: 73%   Direction: 330°NNW
Pressure: 30.03"   Gusts: NA
Location:  21.74°S, 44.31°W
Report Text: SBBQ 261500Z 33011KT 9999 BKN019 24/19 Q1017
Loading
Personal Weather Stations






























Interactive Weather Map New forecast layout! Learn more

10-Day Weather Forecast

Advertisements
Track Severe Weather on mobile